createdAt,value
2023-04-07T00:01:54.770Z,30.87
2023-04-07T00:04:24.490Z,28.60
2023-04-07T00:06:53.298Z,30.27
2023-04-07T00:09:21.427Z,30.03
2023-04-07T00:11:50.138Z,30.70
2023-04-07T00:14:18.244Z,29.17
2023-04-07T00:16:46.732Z,29.47
2023-04-07T00:19:15.993Z,30.77
2023-04-07T00:21:45.487Z,31.03
2023-04-07T00:24:16.382Z,32.43
2023-04-07T00:26:52.172Z,31.40
2023-04-07T00:29:22.782Z,33.27
2023-04-07T00:31:51.027Z,31.97
2023-04-07T00:34:19.180Z,32.37
2023-04-07T00:36:52.212Z,32.50
2023-04-07T00:39:20.685Z,33.50
2023-04-07T00:41:51.353Z,33.97
2023-04-07T00:44:19.508Z,33.17
2023-04-07T00:46:49.653Z,32.63
2023-04-07T00:49:19.194Z,32.80
2023-04-07T00:51:49.028Z,35.07
2023-04-07T00:54:17.138Z,34.10
2023-04-07T00:56:45.308Z,34.13
2023-04-07T00:59:13.557Z,32.73
2023-04-07T01:01:47.437Z,35.87
2023-04-07T01:04:23.800Z,34.87
2023-04-07T01:07:01.293Z,31.30
2023-04-07T01:09:36.416Z,32.67
2023-04-07T01:12:08.889Z,34.00
2023-04-07T01:14:43.746Z,31.87
2023-04-07T01:17:14.149Z,34.03
2023-04-07T01:19:45.806Z,33.17
2023-04-07T01:22:18.873Z,33.60
2023-04-07T01:25:15.563Z,31.33
2023-04-07T01:27:50.372Z,32.07
2023-04-07T01:30:20.431Z,30.50
2023-04-07T01:32:53.315Z,30.83
2023-04-07T01:35:23.361Z,32.40
2023-04-07T01:37:52.233Z,29.97
2023-04-07T01:40:22.508Z,31.37
2023-04-07T01:42:51.406Z,31.67
2023-04-07T01:45:22.802Z,32.03
2023-04-07T01:47:51.552Z,32.40
2023-04-07T01:50:20.647Z,30.60
2023-04-07T01:52:49.387Z,31.83
2023-04-07T01:55:17.475Z,33.80
2023-04-07T01:57:45.555Z,32.87
2023-04-07T02:00:17.196Z,33.17
2023-04-07T02:02:50.556Z,34.80
2023-04-07T02:05:23.113Z,34.17
2023-04-07T02:07:57.108Z,33.43
2023-04-07T02:10:27.726Z,33.63
2023-04-07T02:12:56.634Z,35.00
2023-04-07T02:15:26.573Z,34.73
2023-04-07T02:18:01.554Z,32.53
2023-04-07T02:20:30.719Z,33.80
2023-04-07T02:22:59.165Z,33.33
2023-04-07T02:25:28.871Z,33.90
2023-04-07T02:27:58.179Z,34.73
2023-04-07T02:30:27.153Z,33.87
2023-04-07T02:32:56.952Z,36.53
2023-04-07T02:35:25.561Z,34.70
2023-04-07T02:37:54.045Z,35.70
2023-04-07T02:40:22.484Z,34.20
2023-04-07T02:42:50.789Z,34.60
2023-04-07T02:45:19.233Z,36.00
2023-04-07T02:47:47.523Z,36.80
2023-04-07T02:50:17.230Z,36.77
2023-04-07T02:52:45.688Z,35.67
2023-04-07T02:55:17.078Z,33.90
2023-04-07T02:57:45.316Z,34.50
2023-04-07T03:00:15.959Z,33.30
2023-04-07T03:02:44.293Z,35.27
2023-04-07T03:05:12.729Z,32.93
2023-04-07T03:07:42.458Z,34.07
2023-04-07T03:10:11.527Z,34.37
2023-04-07T03:12:39.597Z,34.53
2023-04-07T03:15:11.168Z,33.47
2023-04-07T03:17:39.370Z,33.23
2023-04-07T03:20:09.144Z,34.17
2023-04-07T03:22:39.396Z,33.10
2023-04-07T03:25:09.675Z,35.03
2023-04-07T03:27:39.231Z,32.27
2023-04-07T03:30:09.621Z,35.53
2023-04-07T03:32:38.673Z,34.97
2023-04-07T03:35:09.357Z,33.13
2023-04-07T03:37:39.916Z,34.80
2023-04-07T03:40:10.558Z,34.23
2023-04-07T03:42:39.068Z,34.10
2023-04-07T03:45:08.377Z,33.00
2023-04-07T03:47:37.476Z,33.03
2023-04-07T03:50:08.850Z,33.47
2023-04-07T03:52:37.129Z,34.53
2023-04-07T03:55:06.148Z,34.87
2023-04-07T03:57:37.914Z,32.87
2023-04-07T04:00:07.784Z,34.13
2023-04-07T04:02:36.553Z,33.57
2023-04-07T04:05:05.280Z,35.63
2023-04-07T04:07:33.946Z,34.83
2023-04-07T04:10:03.948Z,35.10
2023-04-07T04:12:32.135Z,33.57
2023-04-07T04:15:01.866Z,35.50
2023-04-07T04:17:30.359Z,35.63
2023-04-07T04:19:59.440Z,34.90
2023-04-07T04:22:27.536Z,32.40
2023-04-07T04:24:55.586Z,35.07
2023-04-07T04:27:23.986Z,35.93
2023-04-07T04:29:52.378Z,32.57
2023-04-07T04:32:22.530Z,32.00
2023-04-07T04:34:50.905Z,32.70
2023-04-07T04:37:19.296Z,32.30
2023-04-07T04:39:47.579Z,32.20
2023-04-07T04:42:17.746Z,32.43
2023-04-07T04:44:48.893Z,31.77
2023-04-07T04:47:24.837Z,30.73
2023-04-07T04:49:53.205Z,29.67
2023-04-07T04:52:21.894Z,30.03
2023-04-07T04:54:50.106Z,30.27
2023-04-07T04:57:18.357Z,30.37
2023-04-07T04:59:46.834Z,31.07
2023-04-07T05:02:15.099Z,29.60
2023-04-07T05:04:45.600Z,31.37
2023-04-07T05:07:13.843Z,31.57
2023-04-07T05:09:41.927Z,31.43
2023-04-07T05:12:09.933Z,32.53
2023-04-07T05:14:38.162Z,30.73
2023-04-07T05:17:07.076Z,30.53
2023-04-07T05:19:35.550Z,30.80
2023-04-07T05:22:05.141Z,31.40
2023-04-07T05:24:33.623Z,31.83
2023-04-07T05:27:01.948Z,33.30
2023-04-07T05:29:30.639Z,31.30
2023-04-07T05:31:58.773Z,31.87
2023-04-07T05:34:27.395Z,32.47
2023-04-07T05:36:55.413Z,32.67
2023-04-07T05:39:25.029Z,32.53
2023-04-07T05:41:53.552Z,32.07
2023-04-07T05:44:21.608Z,31.77
2023-04-07T05:46:52.039Z,32.70
2023-04-07T05:49:20.777Z,30.97
2023-04-07T05:51:49.539Z,30.30
2023-04-07T05:54:17.731Z,29.57
2023-04-07T05:56:47.693Z,31.63
2023-04-07T05:59:15.915Z,30.33
2023-04-07T06:01:44.243Z,29.13
2023-04-07T06:04:12.591Z,29.73
2023-04-07T06:06:40.976Z,30.20
2023-04-07T06:09:09.111Z,29.77
2023-04-07T06:11:37.470Z,29.83
2023-04-07T06:14:07.038Z,28.33
2023-04-07T06:16:35.226Z,29.97
2023-04-07T06:19:03.783Z,30.30
2023-04-07T06:21:32.051Z,29.40
2023-04-07T06:24:00.328Z,30.63
2023-04-07T06:26:28.590Z,30.30
2023-04-07T06:28:56.869Z,29.67
2023-04-07T06:31:27.134Z,29.17
2023-04-07T06:33:55.605Z,30.83
2023-04-07T06:36:24.705Z,28.57
2023-04-07T06:38:53.015Z,32.07
2023-04-07T06:41:21.212Z,29.97
2023-04-07T06:43:51.393Z,31.20
2023-04-07T06:46:20.102Z,31.97
2023-04-07T06:48:49.507Z,30.67
2023-04-07T06:51:17.800Z,31.57
2023-04-07T06:53:47.631Z,30.57
2023-04-07T06:56:16.125Z,29.57
2023-04-07T06:58:44.165Z,29.07
2023-04-07T07:01:12.332Z,29.57
2023-04-07T07:03:40.497Z,28.90
2023-04-07T07:06:10.088Z,29.53
2023-04-07T07:08:38.117Z,29.07
2023-04-07T07:11:06.350Z,29.23
2023-04-07T07:13:34.637Z,30.63
2023-04-07T07:16:02.967Z,30.17
2023-04-07T07:18:31.864Z,28.20
2023-04-07T07:21:00.131Z,27.87
2023-04-07T07:23:31.698Z,29.33
2023-04-07T07:25:59.809Z,28.67
2023-04-07T07:28:29.267Z,27.63
2023-04-07T07:30:57.444Z,28.00
2023-04-07T07:33:27.164Z,29.93
2023-04-07T07:35:55.402Z,27.90
2023-04-07T07:38:24.013Z,27.23
2023-04-07T07:40:53.454Z,27.47
2023-04-07T07:43:21.646Z,28.17
2023-04-07T07:45:49.869Z,26.13
2023-04-07T07:48:18.117Z,28.43
2023-04-07T07:50:50.907Z,29.67
2023-04-07T07:53:21.028Z,28.27
2023-04-07T07:55:49.600Z,26.60
2023-04-07T07:58:19.297Z,28.70
2023-04-07T08:00:47.671Z,29.73
2023-04-07T08:03:16.476Z,27.47
2023-04-07T08:05:44.609Z,28.80
2023-04-07T08:08:12.654Z,29.30
2023-04-07T08:10:40.873Z,28.80
2023-04-07T08:13:08.932Z,28.60
2023-04-07T08:15:38.575Z,27.83
2023-04-07T08:18:07.191Z,28.60
2023-04-07T08:20:36.134Z,28.30
2023-04-07T08:23:04.166Z,28.87
2023-04-07T08:25:32.184Z,26.73
2023-04-07T08:28:00.188Z,27.40
2023-04-07T08:30:28.226Z,27.07
2023-04-07T08:32:57.983Z,27.10
2023-04-07T08:35:25.979Z,27.37
2023-04-07T08:37:53.873Z,26.10
2023-04-07T08:40:21.863Z,24.43
2023-04-07T08:42:50.508Z,24.97
2023-04-07T08:45:19.605Z,23.87
2023-04-07T08:47:49.379Z,23.90
2023-04-07T08:50:20.157Z,23.60
2023-04-07T08:52:53.352Z,24.13
2023-04-07T08:55:22.188Z,22.70
2023-04-07T08:57:50.552Z,22.67
2023-04-07T09:00:19.778Z,22.60
2023-04-07T09:02:49.589Z,23.17
2023-04-07T09:05:19.082Z,20.83
2023-04-07T09:07:47.045Z,24.20
2023-04-07T09:10:18.982Z,24.23
2023-04-07T09:12:56.167Z,24.53
2023-04-07T09:15:25.891Z,24.20
2023-04-07T09:17:58.061Z,23.13
2023-04-07T09:20:28.045Z,22.40
2023-04-07T09:23:10.810Z,21.97
2023-04-07T09:29:01.173Z,21.00
2023-04-07T09:31:49.116Z,18.27
2023-04-07T09:34:41.059Z,21.10
2023-04-07T09:37:33.904Z,20.63
2023-04-07T09:40:07.623Z,22.37
2023-04-07T09:42:38.105Z,22.70
2023-04-07T09:45:06.891Z,23.30
2023-04-07T09:47:34.939Z,20.60
2023-04-07T09:50:06.942Z,22.67
2023-04-07T09:55:30.246Z,21.47
2023-04-07T09:57:59.390Z,22.20
2023-04-07T10:00:27.506Z,21.25
2023-04-07T10:02:56.620Z,21.00
2023-04-07T10:05:25.271Z,23.95
2023-04-07T10:07:54.490Z,22.27
2023-04-07T10:10:22.829Z,21.93
2023-04-07T10:12:54.609Z,21.67
2023-04-07T10:15:23.431Z,18.83
2023-04-07T10:17:52.172Z,20.33
2023-04-07T10:20:21.616Z,20.23
2023-04-07T10:22:52.042Z,22.20
2023-04-07T10:25:22.353Z,17.70
2023-04-07T10:27:53.881Z,17.20
2023-04-07T10:30:25.200Z,18.77
2023-04-07T10:32:54.957Z,15.93
2023-04-07T10:35:24.060Z,14.50
2023-04-07T10:38:11.599Z,17.35
2023-04-07T10:40:40.279Z,18.13
2023-04-07T10:43:11.446Z,16.23
2023-04-07T10:45:59.406Z,17.70
2023-04-07T10:48:32.897Z,16.67
2023-04-07T10:51:17.993Z,15.67
2023-04-07T10:54:18.931Z,15.10
2023-04-07T10:57:07.843Z,14.80
2023-04-07T10:59:37.934Z,15.47
2023-04-07T11:02:36.353Z,15.20
2023-04-07T11:05:05.246Z,14.33
2023-04-07T11:07:51.237Z,13.73
2023-04-07T11:10:21.997Z,14.10
2023-04-07T11:13:03.418Z,13.60
2023-04-07T11:15:34.014Z,13.60
2023-04-07T11:18:21.448Z,12.50
2023-04-07T11:20:51.747Z,12.70
2023-04-07T11:23:20.995Z,12.17
2023-04-07T11:25:50.921Z,12.20
2023-04-07T11:28:19.405Z,11.23
2023-04-07T11:30:51.889Z,11.07
2023-04-07T11:33:22.229Z,11.90
2023-04-07T11:35:56.754Z,9.80
2023-04-07T11:38:27.251Z,9.93
2023-04-07T11:40:55.907Z,8.60
2023-04-07T11:43:26.434Z,8.93
2023-04-07T11:46:15.030Z,9.03
2023-04-07T11:48:44.062Z,9.47
2023-04-07T11:51:18.401Z,9.43
2023-04-07T11:54:00.914Z,8.90
2023-04-07T11:56:30.484Z,8.13
2023-04-07T11:58:59.168Z,7.93
2023-04-07T12:01:43.005Z,7.63
2023-04-07T12:04:17.473Z,5.93
2023-04-07T12:06:46.560Z,5.97
2023-04-07T12:09:29.566Z,6.13
2023-04-07T12:11:58.436Z,5.47
2023-04-07T12:14:27.661Z,5.60
2023-04-07T12:17:03.519Z,6.30
2023-04-07T12:19:34.831Z,6.80
2023-04-07T12:22:02.891Z,6.87
2023-04-07T12:24:32.233Z,4.90
2023-04-07T12:27:00.354Z,5.47
2023-04-07T12:29:31.044Z,6.43
2023-04-07T12:32:02.199Z,5.10
2023-04-07T12:34:30.200Z,5.27
2023-04-07T12:36:58.152Z,5.80
2023-04-07T12:39:26.292Z,6.40
2023-04-07T12:41:54.306Z,4.20
2023-04-07T12:44:22.295Z,4.90
2023-04-07T12:46:50.228Z,4.80
2023-04-07T12:49:19.559Z,5.33
2023-04-07T12:51:47.540Z,6.30
2023-04-07T12:54:15.744Z,6.50
2023-04-07T12:56:43.882Z,5.30
2023-04-07T12:59:14.860Z,5.17
2023-04-07T13:01:43.110Z,4.70
2023-04-07T13:04:11.283Z,5.80
2023-04-07T13:06:40.798Z,9.77
2023-04-07T13:09:08.673Z,7.40
2023-04-07T13:11:36.649Z,7.30
2023-04-07T13:14:04.611Z,7.50
2023-04-07T13:16:32.735Z,7.37
2023-04-07T13:19:01.081Z,7.93
2023-04-07T13:21:45.277Z,6.97
2023-04-07T13:24:16.268Z,6.67
2023-04-07T13:26:44.220Z,6.10
2023-04-07T13:29:12.273Z,6.03
2023-04-07T13:31:40.367Z,6.70
2023-04-07T13:34:08.619Z,6.67
2023-04-07T13:36:36.612Z,5.87
2023-04-07T13:39:04.654Z,4.60
2023-04-07T13:41:34.103Z,4.20
2023-04-07T13:44:02.552Z,5.30
2023-04-07T13:46:30.697Z,5.80
2023-04-07T13:48:58.738Z,4.60
2023-04-07T13:51:28.002Z,4.40
2023-04-07T13:53:56.048Z,4.30
2023-04-07T13:56:24.033Z,4.17
2023-04-07T13:58:54.018Z,4.53
2023-04-07T14:01:22.289Z,4.00
2023-04-07T14:03:50.590Z,4.30
2023-04-07T14:06:18.859Z,5.30
2023-04-07T14:08:46.844Z,5.07
2023-04-07T14:11:18.320Z,4.60
2023-04-07T14:13:46.920Z,4.00
2023-04-07T14:16:17.903Z,4.17
2023-04-07T14:18:46.962Z,4.43
2023-04-07T14:21:15.212Z,4.17
2023-04-07T14:23:43.352Z,3.27
2023-04-07T14:26:12.500Z,4.03
2023-04-07T14:28:40.931Z,4.60
2023-04-07T14:31:14.017Z,3.80
2023-04-07T14:33:44.196Z,4.13
2023-04-07T14:36:12.530Z,4.43
2023-04-07T14:38:40.942Z,5.80
2023-04-07T14:41:10.379Z,6.93
2023-04-07T14:43:39.143Z,4.53
2023-04-07T14:46:07.259Z,3.87
2023-04-07T14:48:35.277Z,3.50
2023-04-07T14:51:09.818Z,3.27
2023-04-07T14:53:38.073Z,4.00
2023-04-07T14:56:06.277Z,3.40
2023-04-07T14:58:37.212Z,3.70
2023-04-07T15:01:06.463Z,3.50
2023-04-07T15:03:35.676Z,3.10
2023-04-07T15:06:08.144Z,3.30
2023-04-07T15:08:36.155Z,2.93
2023-04-07T15:11:05.652Z,2.60
2023-04-07T15:13:33.664Z,2.10
2023-04-07T15:16:07.910Z,1.50
2023-04-07T15:18:36.086Z,1.50
2023-04-07T15:21:06.057Z,1.60
2023-04-07T15:23:34.607Z,1.43
2023-04-07T15:26:02.763Z,1.30
2023-04-07T15:28:30.931Z,1.17
2023-04-07T15:31:00.586Z,1.10
2023-04-07T15:33:30.959Z,0.93
2023-04-07T15:36:00.249Z,1.40
2023-04-07T15:38:30.476Z,1.30
2023-04-07T15:41:06.170Z,1.30
2023-04-07T15:43:34.543Z,1.10
2023-04-07T15:46:03.092Z,0.80
2023-04-07T15:48:31.301Z,0.90
2023-04-07T15:50:59.392Z,1.50
2023-04-07T15:53:27.654Z,1.00
2023-04-07T15:55:57.134Z,0.80
2023-04-07T15:58:28.080Z,1.00
2023-04-07T16:00:56.469Z,1.17
2023-04-07T16:03:28.199Z,1.10
2023-04-07T16:05:58.740Z,0.93
2023-04-07T16:08:27.634Z,0.70
2023-04-07T16:10:58.075Z,0.90
2023-04-07T16:13:27.729Z,0.80
2023-04-07T16:15:57.866Z,0.90
2023-04-07T16:18:26.198Z,0.80
2023-04-07T16:20:54.987Z,1.00
2023-04-07T16:23:23.384Z,0.80
2023-04-07T16:25:51.803Z,0.80
2023-04-07T16:28:22.141Z,1.10
2023-04-07T16:31:00.368Z,0.93
2023-04-07T16:33:31.568Z,1.20
2023-04-07T16:35:59.708Z,1.30
2023-04-07T16:38:29.221Z,1.60
2023-04-07T16:41:04.001Z,0.80
2023-04-07T16:43:34.545Z,0.90
2023-04-07T16:46:02.789Z,1.10
2023-04-07T16:56:19.585Z,1.10
2023-04-07T16:59:43.332Z,1.13
2023-04-07T17:40:32.912Z,2.10
2023-04-07T17:43:29.535Z,2.30
2023-04-07T17:46:40.616Z,1.30
2023-04-07T17:49:09.975Z,1.20
2023-04-07T17:52:07.614Z,1.60
2023-04-07T17:57:20.741Z,1.37
2023-04-07T18:00:31.782Z,1.10
2023-04-07T18:03:01.643Z,1.07
2023-04-07T18:05:33.326Z,1.40
2023-04-07T18:08:03.613Z,1.23
2023-04-07T18:10:44.189Z,1.03
2023-04-07T18:16:33.591Z,1.20
2023-04-07T18:17:06.000Z,5.60
2023-04-07T18:20:14.230Z,1.40
2023-04-07T18:26:38.921Z,1.30
2023-04-07T18:29:41.353Z,1.47
2023-04-07T18:32:40.891Z,1.80
2023-04-07T18:35:14.545Z,1.83
2023-04-07T18:45:15.090Z,1.90
2023-04-07T18:51:41.095Z,2.00
2023-04-07T18:54:42.106Z,1.70
2023-04-07T19:01:57.722Z,1.80
2023-04-07T19:04:35.825Z,2.20
2023-04-07T19:07:08.945Z,2.00
2023-04-07T19:09:40.352Z,2.30
2023-04-07T19:12:17.476Z,2.10
2023-04-07T19:14:46.138Z,2.00
2023-04-07T19:17:16.633Z,2.00
2023-04-07T19:19:47.488Z,2.10
2023-04-07T19:22:19.294Z,2.57
2023-04-07T19:24:47.776Z,2.20
2023-04-07T19:27:23.918Z,2.10
2023-04-07T19:29:53.053Z,3.80
2023-04-07T19:32:23.266Z,2.70
2023-04-07T19:34:51.778Z,2.40
2023-04-07T19:37:26.172Z,2.20
2023-04-07T19:54:18.043Z,2.00
2023-04-07T19:58:50.332Z,2.47
2023-04-07T20:04:27.881Z,1.93
2023-04-07T20:07:13.506Z,2.10
2023-04-07T20:10:17.467Z,2.10
2023-04-07T20:16:54.779Z,1.90
2023-04-07T20:19:55.726Z,2.13
2023-04-07T20:36:48.221Z,2.73
2023-04-07T20:43:12.323Z,3.83
2023-04-07T20:52:39.634Z,2.90
2023-04-07T20:55:08.652Z,2.63
2023-04-07T20:57:36.739Z,3.10
2023-04-07T21:00:06.021Z,3.60
2023-04-07T21:02:34.549Z,3.40
2023-04-07T21:05:03.730Z,3.57
2023-04-07T21:07:32.338Z,3.47
2023-04-07T21:10:01.797Z,3.90
2023-04-07T21:12:29.846Z,3.60
2023-04-07T21:14:57.889Z,4.00
2023-04-07T21:17:26.123Z,3.33
2023-04-07T21:19:54.221Z,4.53
2023-04-07T21:22:22.384Z,5.53
2023-04-07T21:24:53.685Z,5.97
2023-04-07T21:27:24.549Z,6.63
2023-04-07T21:29:52.638Z,6.60
2023-04-07T21:32:20.737Z,6.20
2023-04-07T21:34:52.345Z,5.43
2023-04-07T21:37:20.369Z,5.10
2023-04-07T21:39:48.649Z,5.40
2023-04-07T21:42:16.668Z,4.87
2023-04-07T21:44:46.121Z,5.77
2023-04-07T21:47:14.830Z,4.90
2023-04-07T21:49:42.855Z,4.60
2023-04-07T21:52:10.977Z,4.73
2023-04-07T21:54:39.370Z,5.37
2023-04-07T21:57:07.921Z,5.50
2023-04-07T21:59:37.259Z,5.40
2023-04-07T22:02:07.283Z,6.17
2023-04-07T22:04:36.132Z,11.67
2023-04-07T22:07:07.356Z,22.90
2023-04-07T22:09:35.403Z,10.73
2023-04-07T22:12:03.557Z,8.37
2023-04-07T22:14:31.782Z,6.53
2023-04-07T22:16:59.889Z,6.43
2023-04-07T22:19:29.341Z,6.60
2023-04-07T22:21:57.400Z,6.30
2023-04-07T22:24:25.503Z,6.27
2023-04-07T22:26:53.983Z,5.23
2023-04-07T22:29:22.187Z,5.80
2023-04-07T22:31:50.541Z,6.10
2023-04-07T22:34:19.591Z,6.23
2023-04-07T22:36:49.303Z,6.57
2023-04-07T22:39:17.687Z,6.70
2023-04-07T22:41:45.747Z,6.87
2023-04-07T22:44:13.826Z,7.40
2023-04-07T22:46:41.826Z,6.87
2023-04-07T22:49:09.939Z,7.00
2023-04-07T22:51:38.029Z,6.73
2023-04-07T22:54:07.446Z,6.43
2023-04-07T22:56:35.541Z,7.20
2023-04-07T22:59:05.922Z,7.43
2023-04-07T23:01:34.506Z,6.97
2023-04-07T23:04:02.605Z,7.37
2023-04-07T23:06:32.139Z,7.67
2023-04-07T23:09:00.532Z,6.80
2023-04-07T23:11:29.991Z,7.57
2023-04-07T23:13:58.007Z,7.63
2023-04-07T23:16:26.284Z,6.83
2023-04-07T23:18:54.370Z,7.73
2023-04-07T23:21:22.499Z,7.20
2023-04-07T23:23:50.640Z,7.00
2023-04-07T23:26:18.806Z,7.53
2023-04-07T23:28:48.867Z,7.03
2023-04-07T23:31:18.429Z,7.97
2023-04-07T23:33:46.754Z,8.20
2023-04-07T23:36:14.787Z,8.50
2023-04-07T23:38:42.946Z,9.30
2023-04-07T23:41:11.115Z,9.77
2023-04-07T23:43:39.436Z,9.87
2023-04-07T23:46:09.035Z,9.90
2023-04-07T23:48:37.380Z,11.00
2023-04-07T23:51:06.008Z,10.03
2023-04-07T23:53:34.094Z,11.07
2023-04-07T23:56:02.557Z,10.97
2023-04-07T23:58:32.847Z,12.10
